sensor_id;sensor_type;location;lat;lon;timestamp;pressure;altitude;pressure_sealevel;temperature;humidity
69593;BME280;56796;50.122;14.468;2022-09-09T00:06:49;976.87;;;15.16;98.66
69593;BME280;56796;50.122;14.468;2022-09-09T00:26:23;976.95;;;15.12;98.94
69593;BME280;56796;50.122;14.468;2022-09-09T00:45:59;976.98;;;14.95;99.56
69593;BME280;56796;50.122;14.468;2022-09-09T01:05:33;977.1;;;14.8;100
69593;BME280;56796;50.122;14.468;2022-09-09T01:25:11;977.07;;;14.68;100
69593;BME280;56796;50.122;14.468;2022-09-09T01:44:40;977.1;;;14.61;100
69593;BME280;56796;50.122;14.468;2022-09-09T02:04:22;976.97;;;14.47;100
69593;BME280;56796;50.122;14.468;2022-09-09T02:23:39;976.97;;;14.41;100
69593;BME280;56796;50.122;14.468;2022-09-09T02:43:16;977.01;;;14.22;100
69593;BME280;56796;50.122;14.468;2022-09-09T03:02:49;976.97;;;14.21;100
69593;BME280;56796;50.122;14.468;2022-09-09T03:22:25;977.1;;;14.06;100
69593;BME280;56796;50.122;14.468;2022-09-09T03:42:00;977.1;;;14.1;100
69593;BME280;56796;50.122;14.468;2022-09-09T04:01:35;977.13;;;14.05;100
69593;BME280;56796;50.122;14.468;2022-09-09T04:21:10;977.15;;;13.97;100
69593;BME280;56796;50.122;14.468;2022-09-09T04:40:46;977.13;;;14.08;100
69593;BME280;56796;50.122;14.468;2022-09-09T05:00:22;977.28;;;14.32;100
69593;BME280;56796;50.122;14.468;2022-09-09T05:19:57;977.33;;;14.42;100
69593;BME280;56796;50.122;14.468;2022-09-09T05:39:34;977.41;;;14.92;99.91
69593;BME280;56796;50.122;14.468;2022-09-09T05:59:09;977.37;;;14.88;99.12
69593;BME280;56796;50.122;14.468;2022-09-09T06:18:44;977.59;;;15.03;98.44
69593;BME280;56796;50.122;14.468;2022-09-09T06:38:24;977.71;;;16.62;92.6
69593;BME280;56796;50.122;14.468;2022-09-09T06:58:07;977.59;;;18.34;84.72
69593;BME280;56796;50.122;14.468;2022-09-09T07:17:48;977.62;;;19.11;79.5
69593;BME280;56796;50.122;14.468;2022-09-09T07:37:28;977.68;;;20.4;76
69593;BME280;56796;50.122;14.468;2022-09-09T07:57:09;977.69;;;22.28;68.35
69593;BME280;56796;50.122;14.468;2022-09-09T08:36:31;977.93;;;23.68;63.25
69593;BME280;56796;50.122;14.468;2022-09-09T08:56:08;977.89;;;24.5;60.43
69593;BME280;56796;50.122;14.468;2022-09-09T09:15:45;977.83;;;23.94;60.15
69593;BME280;56796;50.122;14.468;2022-09-09T09:35:26;977.71;;;26.17;55.03
69593;BME280;56796;50.122;14.468;2022-09-09T09:55:11;977.5;;;27.83;50.01
69593;BME280;56796;50.122;14.468;2022-09-09T10:14:53;977.35;;;27.67;48.3
69593;BME280;56796;50.122;14.468;2022-09-09T10:54:03;977.06;;;26.75;51.05
69593;BME280;56796;50.122;14.468;2022-09-09T11:13:42;977.02;;;28.3;43.86
69593;BME280;56796;50.122;14.468;2022-09-09T11:52:36;977.07;;;21.11;73.82
69593;BME280;56796;50.122;14.468;2022-09-09T12:31:27;977.18;;;20.37;76.35
69593;BME280;56796;50.122;14.468;2022-09-09T12:50:56;977.16;;;18.62;87.72
69593;BME280;56796;50.122;14.468;2022-09-09T13:10:27;977.6;;;17.11;83.38
69593;BME280;56796;50.122;14.468;2022-09-09T13:29:56;977.19;;;16.92;88.32
69593;BME280;56796;50.122;14.468;2022-09-09T13:49:38;976.97;;;20.35;78.7
69593;BME280;56796;50.122;14.468;2022-09-09T14:09:15;976.76;;;19.68;82.19
69593;BME280;56796;50.122;14.468;2022-09-09T14:28:52;976.62;;;20.75;77.82
69593;BME280;56796;50.122;14.468;2022-09-09T14:48:28;976.49;;;20.75;74.47
69593;BME280;56796;50.122;14.468;2022-09-09T15:08:04;976.39;;;20.73;78.58
69593;BME280;56796;50.122;14.468;2022-09-09T15:27:40;976.38;;;20.57;78.09
69593;BME280;56796;50.122;14.468;2022-09-09T15:47:15;976.52;;;20.29;78.46
69593;BME280;56796;50.122;14.468;2022-09-09T16:06:50;976.41;;;20.04;77.39
69593;BME280;56796;50.122;14.468;2022-09-09T16:26:24;976.53;;;19.76;78.7
69593;BME280;56796;50.122;14.468;2022-09-09T16:46:01;976.53;;;19.71;79.09
69593;BME280;56796;50.122;14.468;2022-09-09T17:05:39;976.65;;;19.4;80.46
69593;BME280;56796;50.122;14.468;2022-09-09T17:25:08;976.89;;;19.23;81.25
69593;BME280;56796;50.122;14.468;2022-09-09T17:44:42;976.78;;;19.01;82.97
69593;BME280;56796;50.122;14.468;2022-09-09T18:04:20;976.96;;;18.86;84.01
69593;BME280;56796;50.122;14.468;2022-09-09T18:23:42;977.16;;;18.69;85.32
69593;BME280;56796;50.122;14.468;2022-09-09T18:43:18;977.18;;;18.62;86.14
69593;BME280;56796;50.122;14.468;2022-09-09T19:02:53;977.31;;;18.64;87.33
69593;BME280;56796;50.122;14.468;2022-09-09T19:22:28;977.22;;;18.28;90.35
69593;BME280;56796;50.122;14.468;2022-09-09T19:42:03;977.38;;;17.9;92.45
69593;BME280;56796;50.122;14.468;2022-09-09T20:01:37;977.27;;;17.6;93.14
69593;BME280;56796;50.122;14.468;2022-09-09T20:21:12;977.4;;;17.53;92.59
69593;BME280;56796;50.122;14.468;2022-09-09T20:40:46;977.43;;;17.4;92.44
69593;BME280;56796;50.122;14.468;2022-09-09T21:00:21;977.37;;;17.37;84.08
69593;BME280;56796;50.122;14.468;2022-09-09T21:19:55;976.8;;;16.81;79.83
69593;BME280;56796;50.122;14.468;2022-09-09T21:39:30;976.95;;;16.49;81.17
69593;BME280;56796;50.122;14.468;2022-09-09T21:59:05;977.81;;;16.31;82.37
69593;BME280;56796;50.122;14.468;2022-09-09T22:18:41;977.69;;;16.14;82.42
69593;BME280;56796;50.122;14.468;2022-09-09T22:38:15;977.8;;;16.12;78.96
69593;BME280;56796;50.122;14.468;2022-09-09T22:57:51;977.75;;;15.79;80.04
69593;BME280;56796;50.122;14.468;2022-09-09T23:17:26;977.66;;;15.46;81.75
69593;BME280;56796;50.122;14.468;2022-09-09T23:37:00;977.62;;;15.35;82.34
69593;BME280;56796;50.122;14.468;2022-09-09T23:56:36;977.79;;;15.28;83.75
